Time;durP1;ratioP1;P1;durP2;ratioP2;P2;SDS_P1;SDS_P2;PMS_P1;PMS_P2;Temp;Humidity;BMP_temperature;BMP_pressure;BME280_temperature;BME280_humidity;BME280_pressure;Samples;Min_cycle;Max_cycle;Signal;HPM_P1;HPM_P2
2023/06/21 00:01:04;;;;;;;15.17;4.07;;;;;;;19.54;67.87;100231.94;5023274;28;20305;-59
2023/06/21 00:03:35;;;;;;;14.40;4.03;;;;;;;19.58;67.94;100225.53;5030091;28;20835;-61
2023/06/21 00:06:07;;;;;;;19.67;4.70;;;;;;;19.71;67.60;100229.25;5041092;28;20290;-60
2023/06/21 00:08:38;;;;;;;14.97;4.10;;;;;;;19.90;66.87;100225.59;5013288;28;20295;-61
2023/06/21 00:11:09;;;;;;;8.40;3.13;;;;;;;20.06;65.63;100226.44;5023636;28;20271;-59
2023/06/21 00:13:39;;;;;;;14.47;3.27;;;;;;;20.11;65.94;100229.69;5018748;28;20283;-60
2023/06/21 00:16:13;;;;;;;11.20;2.87;;;;;;;20.17;66.31;100224.03;5041373;28;20383;-59
2023/06/21 00:18:44;;;;;;;9.67;3.10;;;;;;;20.29;66.38;100226.91;5032273;28;20420;-58
2023/06/21 00:21:14;;;;;;;14.57;3.07;;;;;;;20.41;64.63;100226.22;5043855;28;20295;-60
2023/06/21 00:23:45;;;;;;;16.60;3.40;;;;;;;20.56;64.70;100222.69;5032306;28;20302;-60
2023/06/21 00:26:15;;;;;;;18.53;2.87;;;;;;;20.74;64.22;100219.91;5026887;28;20279;-60
2023/06/21 00:28:46;;;;;;;18.53;3.53;;;;;;;20.84;64.36;100221.06;5014556;28;20314;-60
2023/06/21 00:31:18;;;;;;;10.97;3.43;;;;;;;20.92;63.76;100221.47;5030043;28;20354;-61
2023/06/21 00:33:49;;;;;;;12.13;3.50;;;;;;;20.92;63.27;100210.88;5015783;28;20637;-61
2023/06/21 00:36:19;;;;;;;5.33;2.53;;;;;;;20.73;62.76;100178.38;5016498;28;20387;-60
2023/06/21 00:38:50;;;;;;;11.90;2.47;;;;;;;20.98;62.48;100205.16;5017734;28;20290;-60
2023/06/21 00:41:21;;;;;;;8.57;2.60;;;;;;;21.09;62.31;100202.72;5016626;28;20279;-59
2023/06/21 00:43:51;;;;;;;7.33;2.57;;;;;;;21.20;61.17;100209.19;5014235;28;20291;-59
2023/06/21 00:46:30;;;;;;;9.40;2.50;;;;;;;21.38;61.58;100208.03;5034145;28;20283;-61
2023/06/21 00:49:08;;;;;;;9.70;1.97;;;;;;;21.36;60.26;100191.31;5028125;28;20319;-59
2023/06/21 00:51:44;;;;;;;6.57;2.10;;;;;;;21.56;60.92;100200.72;5027141;28;20365;-61
2023/06/21 00:54:18;;;;;;;12.57;2.10;;;;;;;21.83;61.08;100203.44;5022073;28;20287;-60
2023/06/21 00:56:50;;;;;;;10.70;2.10;;;;;;;21.67;57.54;100168.16;5029349;28;20358;-59
2023/06/21 00:59:21;;;;;;;10.23;2.00;;;;;;;21.81;57.77;100194.72;5039639;28;20086;-62
2023/06/21 01:01:55;;;;;;;4.83;1.77;;;;;;;21.92;59.05;100192.22;5029249;28;20049;-59
2023/06/21 01:04:27;;;;;;;7.07;1.60;;;;;;;21.98;58.73;100186.50;5039562;28;20365;-61
2023/06/21 01:07:08;;;;;;;9.57;2.30;;;;;;;22.09;58.07;100190.25;5029062;28;20602;-59
2023/06/21 01:09:48;;;;;;;6.00;1.63;;;;;;;22.22;58.34;100193.88;5027955;28;20052;-59
2023/06/21 01:12:33;;;;;;;13.03;2.20;;;;;;;22.31;58.72;100177.28;5038981;28;20076;-59
2023/06/21 01:15:05;;;;;;;5.73;1.97;;;;;;;22.40;56.88;100192.63;5028635;28;20052;-60
2023/06/21 01:17:41;;;;;;;14.73;2.10;;;;;;;22.48;56.88;100194.78;5028959;28;20064;-62
2023/06/21 01:20:18;;;;;;;10.67;2.20;;;;;;;22.48;55.91;100188.63;5039355;28;20425;-59
2023/06/21 01:23:01;;;;;;;10.93;2.23;;;;;;;22.46;56.07;100171.88;5028296;28;20048;-60
2023/06/21 01:25:41;;;;;;;8.33;1.97;;;;;;;22.65;56.50;100188.31;5038758;28;20411;-58
2023/06/21 01:28:32;;;;;;;8.80;1.80;;;;;;;22.75;56.13;100185.91;5028400;28;20055;-60
2023/06/21 01:31:06;;;;;;;9.33;2.03;;;;;;;22.76;55.35;100176.94;5028234;28;20054;-58
2023/06/21 01:33:39;;;;;;;9.73;1.77;;;;;;;22.81;54.23;100175.69;5028416;28;20391;-59
2023/06/21 01:36:11;;;;;;;14.30;2.60;;;;;;;22.74;56.00;100153.09;5039159;28;20057;-59
2023/06/21 01:38:41;;;;;;;10.00;2.27;;;;;;;22.85;55.97;100175.47;5029032;28;20139;-59
2023/06/21 01:41:12;;;;;;;7.43;1.30;;;;;;;22.85;56.05;100148.81;5039294;28;20056;-58
2023/06/21 01:43:43;;;;;;;6.20;1.60;;;;;;;22.86;54.22;100134.53;5028378;28;20052;-58
2023/06/21 01:46:16;;;;;;;6.70;1.60;;;;;;;23.13;54.46;100158.44;5037299;28;20798;-58
2023/06/21 01:48:48;;;;;;;4.43;1.20;;;;;;;23.09;53.79;100148.94;5028484;28;20040;-58
2023/06/21 01:51:20;;;;;;;4.37;1.20;;;;;;;23.09;52.46;100109.84;5038970;28;20490;-58
2023/06/21 01:53:51;;;;;;;9.33;1.57;;;;;;;23.32;52.59;100160.66;5029285;28;20102;-57
2023/06/21 01:56:23;;;;;;;5.03;1.70;;;;;;;23.29;50.90;100163.50;5035856;28;21417;-59
2023/06/21 01:58:54;;;;;;;2.47;1.00;;;;;;;23.34;50.19;100150.72;5028461;28;20046;-59
2023/06/21 02:01:28;;;;;;;5.40;1.17;;;;;;;23.38;50.45;100152.22;5038386;28;20688;-59
2023/06/21 02:04:00;;;;;;;5.43;2.53;;;;;;;23.42;50.79;100149.22;5011151;28;20108;-59
2023/06/21 02:06:33;;;;;;;3.53;1.20;;;;;;;23.42;49.18;100148.38;5018948;28;20392;-58
2023/06/21 02:09:05;;;;;;;4.17;1.30;;;;;;;23.30;50.10;100114.59;5024780;28;20103;-58
2023/06/21 02:11:36;;;;;;;4.37;1.20;;;;;;;23.55;50.62;100143.84;5029890;28;20052;-58
2023/06/21 02:14:08;;;;;;;5.13;1.10;;;;;;;23.62;49.75;100139.78;5041837;28;20044;-58
2023/06/21 02:16:40;;;;;;;6.33;1.30;;;;;;;23.67;48.96;100142.94;5031756;28;20143;-59
2023/06/21 02:19:10;;;;;;;13.17;1.63;;;;;;;23.68;49.43;100139.31;5042410;28;20062;-57
2023/06/21 02:21:42;;;;;;;8.63;2.10;;;;;;;23.73;51.56;100130.16;5030722;28;20056;-58
2023/06/21 02:24:13;;;;;;;11.73;3.97;;;;;;;23.84;51.91;100130.25;5040913;28;20098;-58
2023/06/21 02:26:43;;;;;;;9.87;2.20;;;;;;;23.90;51.83;100135.09;5031413;28;20048;-58
2023/06/21 02:29:14;;;;;;;4.57;1.50;;;;;;;23.94;51.91;100128.59;5042091;28;20056;-58
2023/06/21 02:31:46;;;;;;;5.33;1.50;;;;;;;24.06;52.21;100137.47;5031248;28;20080;-58
2023/06/21 02:34:17;;;;;;;5.40;1.67;;;;;;;24.02;51.69;100110.19;5041663;28;20052;-57
2023/06/21 02:36:53;;;;;;;7.97;2.10;;;;;;;24.06;52.03;100122.34;5031534;28;20044;-59
2023/06/21 02:39:24;;;;;;;13.20;4.93;;;;;;;23.84;51.61;100095.56;5041546;28;20048;-59
2023/06/21 02:41:55;;;;;;;11.17;4.53;;;;;;;24.07;52.08;100116.03;5031305;28;20076;-60
2023/06/21 02:44:26;;;;;;;7.33;2.07;;;;;;;24.13;50.61;100117.38;5042045;28;20052;-57
2023/06/21 02:46:59;;;;;;;10.33;1.80;;;;;;;24.20;51.25;100123.09;5031844;28;20169;-58
2023/06/21 02:49:30;;;;;;;8.57;1.83;;;;;;;24.08;51.26;100083.00;5041757;28;20526;-60
2023/06/21 02:52:00;;;;;;;12.43;1.93;;;;;;;24.34;50.79;100112.25;5031115;28;20135;-56
2023/06/21 02:54:32;;;;;;;11.27;1.70;;;;;;;24.45;51.19;100117.63;5041279;28;20131;-56
2023/06/21 02:57:02;;;;;;;5.87;1.27;;;;;;;24.52;49.34;100113.53;5011953;28;20059;-60
2023/06/21 02:59:33;;;;;;;10.20;1.60;;;;;;;24.53;50.79;100104.53;5032276;28;20056;-58
2023/06/21 03:02:05;;;;;;;6.03;1.60;;;;;;;24.62;49.95;100108.31;5021786;28;20478;-58
2023/06/21 03:04:36;;;;;;;5.93;1.40;;;;;;;24.62;49.93;100104.81;5012268;28;20138;-59
2023/06/21 03:07:07;;;;;;;9.17;1.80;;;;;;;24.59;50.11;100103.22;5034133;28;20139;-58
2023/06/21 03:09:38;;;;;;;11.70;1.73;;;;;;;24.67;50.56;100111.47;5030711;28;20099;-60
2023/06/21 03:12:09;;;;;;;6.73;1.33;;;;;;;24.58;50.19;100090.81;5040087;28;20080;-58
2023/06/21 03:14:41;;;;;;;11.10;1.10;;;;;;;24.63;50.46;100103.81;5023886;28;20040;-58
2023/06/21 03:17:13;;;;;;;3.00;1.07;;;;;;;24.67;49.98;100094.63;5034905;28;20477;-59
2023/06/21 03:19:44;;;;;;;3.60;1.30;;;;;;;24.60;49.23;100098.72;5025150;28;20044;-58
2023/06/21 03:22:15;;;;;;;3.47;1.47;;;;;;;24.61;49.75;100089.72;5034771;28;21155;-58
2023/06/21 03:24:45;;;;;;;5.30;1.37;;;;;;;24.70;50.78;100086.34;5024489;28;20068;-60
2023/06/21 03:27:16;;;;;;;9.13;1.50;;;;;;;24.80;50.02;100090.00;5032565;28;20044;-57
2023/06/21 03:29:46;;;;;;;3.93;1.37;;;;;;;24.67;49.56;100073.25;5022564;28;20037;-59
2023/06/21 03:32:19;;;;;;;8.00;1.57;;;;;;;24.66;49.72;100071.53;5035149;28;20044;-60
2023/06/21 03:34:49;;;;;;;6.27;1.20;;;;;;;24.74;50.20;100079.81;5024905;28;20744;-58
2023/06/21 03:37:20;;;;;;;7.00;1.50;;;;;;;24.81;49.86;100070.34;5035612;28;20327;-57
2023/06/21 03:39:51;;;;;;;7.73;1.20;;;;;;;24.89;50.20;100078.59;5024439;28;20055;-57
2023/06/21 03:42:21;;;;;;;10.27;1.43;;;;;;;24.54;50.34;100015.44;5029357;28;20143;-57
2023/06/21 03:44:52;;;;;;;7.23;1.80;;;;;;;24.91;49.49;100071.31;5018550;28;20055;-58
2023/06/21 03:47:24;;;;;;;7.83;1.77;;;;;;;25.01;50.50;100070.56;5033544;28;20055;-58
2023/06/21 03:49:57;;;;;;;7.00;1.37;;;;;;;25.04;49.63;100070.34;5029544;28;20145;-60
2023/06/21 03:52:28;;;;;;;8.93;1.87;;;;;;;25.07;49.21;100072.75;5040804;28;20181;-58
2023/06/21 03:54:58;;;;;;;10.73;1.30;;;;;;;25.02;49.30;100072.28;5017671;28;20048;-59
2023/06/21 03:57:29;;;;;;;6.13;1.10;;;;;;;25.19;49.42;100074.47;5039970;28;20699;-57
2023/06/21 04:00:00;;;;;;;6.80;1.47;;;;;;;25.16;49.15;100058.63;5029696;28;20062;-61
2023/06/21 04:02:35;;;;;;;14.77;2.13;;;;;;;24.86;49.11;100029.88;5033437;28;20098;-60
2023/06/21 04:05:06;;;;;;;8.90;1.63;;;;;;;25.03;49.65;100063.28;5028736;28;20143;-58
2023/06/21 04:07:37;;;;;;;3.87;1.40;;;;;;;24.98;49.96;100061.81;5027916;28;21229;-58
2023/06/21 04:10:10;;;;;;;14.10;1.70;;;;;;;24.97;50.25;100067.28;5038949;28;20040;-58
2023/06/21 04:12:40;;;;;;;8.80;1.90;;;;;;;25.03;50.18;100065.94;5027086;28;20136;-62
2023/06/21 04:15:12;;;;;;;11.33;1.57;;;;;;;25.00;50.26;100066.19;5034659;28;20434;-59
2023/06/21 04:17:44;;;;;;;10.60;2.20;;;;;;;24.47;50.35;100003.53;5029178;28;20143;-59
2023/06/21 04:20:15;;;;;;;6.87;2.20;;;;;;;24.87;50.40;100069.84;5040320;28;20052;-61
2023/06/21 04:22:46;;;;;;;8.93;1.60;;;;;;;24.51;49.55;100039.72;5030325;28;20060;-60
2023/06/21 04:25:18;;;;;;;6.03;1.43;;;;;;;24.76;50.91;100064.47;5036600;28;20106;-60
2023/06/21 04:27:49;;;;;;;6.20;1.63;;;;;;;24.86;51.18;100057.47;5030082;28;20180;-59
2023/06/21 04:30:19;;;;;;;5.83;2.17;;;;;;;24.95;52.30;100064.72;5040431;28;20052;-59
2023/06/21 04:32:52;;;;;;;8.97;2.80;;;;;;;25.09;50.72;100057.44;5029379;28;20082;-59
2023/06/21 04:35:23;;;;;;;10.67;2.53;;;;;;;25.02;50.19;100069.59;5039542;28;20076;-62
2023/06/21 04:37:53;;;;;;;10.30;3.33;;;;;;;24.93;51.39;100058.66;5030313;28;20152;-62
2023/06/21 04:40:24;;;;;;;7.93;1.50;;;;;;;24.84;52.09;100054.06;5039827;28;20063;-62
2023/06/21 04:42:57;;;;;;;10.83;2.20;;;;;;;24.77;52.51;100060.84;5028709;28;20127;-59
2023/06/21 04:45:29;;;;;;;3.97;1.90;;;;;;;24.60;51.69;100058.66;5040691;28;20044;-59
2023/06/21 04:48:04;;;;;;;10.90;4.77;;;;;;;24.47;52.60;100061.44;5024730;28;20492;-58
2023/06/21 04:50:35;;;;;;;6.23;2.13;;;;;;;24.51;53.91;100063.75;5010713;28;20084;-59
2023/06/21 04:53:06;;;;;;;8.27;2.10;;;;;;;24.40;53.66;100055.69;5020654;28;20579;-58
2023/06/21 04:55:42;;;;;;;15.33;2.47;;;;;;;24.33;53.53;100054.44;5009795;28;20083;-60
2023/06/21 04:58:12;;;;;;;10.80;2.30;;;;;;;24.30;54.83;100060.03;5018916;28;20086;-60
2023/06/21 05:00:43;;;;;;;16.17;2.33;;;;;;;24.35;55.03;100049.84;5009068;28;20052;-59
2023/06/21 05:03:15;;;;;;;12.57;1.90;;;;;;;24.26;55.23;100039.88;5020518;28;20045;-59
2023/06/21 05:05:45;;;;;;;5.60;1.63;;;;;;;24.40;54.41;100054.84;5011218;28;20052;-59
2023/06/21 05:08:16;;;;;;;6.87;4.10;;;;;;;24.44;53.39;100062.50;5020906;28;20624;-59
2023/06/21 05:10:47;;;;;;;11.50;3.50;;;;;;;24.48;53.33;100058.63;5010788;28;20122;-60
2023/06/21 05:13:17;;;;;;;6.03;1.80;;;;;;;24.39;53.24;100063.78;5024928;28;20049;-60
2023/06/21 05:15:48;;;;;;;16.33;2.00;;;;;;;24.30;54.98;100046.69;5028037;28;20049;-60
2023/06/21 05:18:20;;;;;;;9.57;1.80;;;;;;;24.51;54.66;100062.88;5038347;28;20127;-59
2023/06/21 05:20:51;;;;;;;13.77;1.77;;;;;;;24.33;54.57;100059.78;5028193;28;20155;-58
2023/06/21 05:23:21;;;;;;;7.93;2.30;;;;;;;24.22;54.28;100065.97;5038150;28;20061;-60
2023/06/21 05:25:52;;;;;;;6.27;1.40;;;;;;;24.09;54.24;100068.72;5028304;28;20048;-61
2023/06/21 05:28:22;;;;;;;6.27;1.60;;;;;;;24.03;54.84;100071.84;5038327;28;20052;-60
2023/06/21 05:30:53;;;;;;;9.03;1.73;;;;;;;23.92;54.16;100063.81;5027887;28;20076;-62
2023/06/21 05:33:26;;;;;;;10.63;1.80;;;;;;;23.82;54.16;100076.13;5037048;28;20057;-61
2023/06/21 05:35:56;;;;;;;8.00;3.40;;;;;;;23.77;54.52;100046.28;5028081;28;20556;-59
2023/06/21 05:38:27;;;;;;;10.03;2.10;;;;;;;23.88;54.07;100059.66;5038412;28;20494;-61
2023/06/21 05:40:58;;;;;;;12.23;5.90;;;;;;;23.80;54.22;100062.06;5024264;28;20753;-58
2023/06/21 05:43:29;;;;;;;10.57;6.80;;;;;;;23.67;54.27;100052.25;5038684;28;20139;-59
2023/06/21 05:45:59;;;;;;;7.87;2.03;;;;;;;23.45;54.63;100041.47;5028636;28;20052;-59
2023/06/21 05:48:32;;;;;;;8.90;2.47;;;;;;;23.50;55.08;100054.47;5042629;28;20426;-59
2023/06/21 05:51:03;;;;;;;8.37;2.17;;;;;;;23.58;55.53;100071.59;5012983;28;21257;-62
2023/06/21 05:53:33;;;;;;;9.40;2.10;;;;;;;23.53;55.88;100065.75;5040618;28;20064;-60
2023/06/21 05:56:04;;;;;;;8.63;1.93;;;;;;;23.41;56.13;100066.66;5042224;28;20048;-57
2023/06/21 05:58:34;;;;;;;17.47;2.30;;;;;;;23.24;56.14;100063.41;5032527;28;20048;-57
2023/06/21 06:01:05;;;;;;;5.90;2.17;;;;;;;23.01;56.27;100026.91;5042147;28;20495;-62
2023/06/21 06:03:53;;;;;;;6.10;2.07;;;;;;;23.13;56.33;100063.31;5031786;28;20045;-60
2023/06/21 06:06:24;;;;;;;11.17;2.50;;;;;;;23.11;56.65;100070.56;5041896;28;20109;-58
2023/06/21 06:08:55;;;;;;;6.30;2.60;;;;;;;23.12;57.30;100069.63;5032021;28;20454;-60
2023/06/21 06:11:25;;;;;;;12.50;2.90;;;;;;;23.12;57.96;100066.13;5042358;28;20075;-60
2023/06/21 06:13:56;;;;;;;5.77;2.07;;;;;;;23.10;57.36;100063.56;5031500;28;20053;-60
2023/06/21 06:16:27;;;;;;;6.70;2.20;;;;;;;22.49;56.74;99998.59;5042218;28;20586;-61
2023/06/21 06:19:01;;;;;;;7.13;2.30;;;;;;;22.60;57.68;100059.97;5032228;28;20543;-61
2023/06/21 06:21:32;;;;;;;11.97;2.80;;;;;;;22.72;59.38;100053.78;5042760;28;20123;-61
2023/06/21 06:24:02;;;;;;;12.53;2.13;;;;;;;22.79;58.77;100054.22;5032762;28;20514;-59
2023/06/21 06:26:33;;;;;;;10.30;2.30;;;;;;;22.78;58.82;100055.16;5039131;28;20174;-58
2023/06/21 06:29:04;;;;;;;9.93;2.47;;;;;;;22.61;58.52;100061.66;5042242;28;20057;-59
2023/06/21 06:31:35;;;;;;;11.53;2.20;;;;;;;22.40;58.83;100027.59;5031891;28;20477;-59
2023/06/21 06:34:07;;;;;;;10.43;2.30;;;;;;;22.54;58.97;100060.38;5042806;28;20072;-61
2023/06/21 06:36:37;;;;;;;7.77;2.43;;;;;;;22.56;59.26;100059.31;5031860;28;20476;-59
2023/06/21 06:39:09;;;;;;;8.90;2.47;;;;;;;22.64;59.52;100065.91;5042586;28;20098;-58
2023/06/21 06:41:39;;;;;;;7.23;2.13;;;;;;;22.61;59.03;100064.31;5032882;28;20055;-60
2023/06/21 06:44:10;;;;;;;14.33;2.40;;;;;;;22.66;59.52;100070.19;5042815;28;20121;-59
2023/06/21 06:46:40;;;;;;;11.63;2.83;;;;;;;22.70;60.00;100073.50;5032134;28;20252;-61
2023/06/21 06:49:13;;;;;;;8.30;2.70;;;;;;;22.68;60.24;100057.59;5042441;28;20064;-59
2023/06/21 06:51:45;;;;;;;8.10;2.70;;;;;;;22.81;60.45;100071.78;5031774;28;20052;-61
2023/06/21 06:54:16;;;;;;;8.43;2.17;;;;;;;22.81;60.72;100069.13;5041719;28;20552;-59
2023/06/21 06:56:46;;;;;;;8.93;2.87;;;;;;;22.43;60.46;100036.31;5030947;28;20048;-58
2023/06/21 06:59:17;;;;;;;8.17;2.40;;;;;;;22.50;60.81;100069.56;5038840;28;20052;-60
2023/06/21 07:01:48;;;;;;;15.80;3.03;;;;;;;22.48;61.10;100071.47;5031894;28;20568;-60
2023/06/21 07:04:21;;;;;;;6.27;2.30;;;;;;;22.31;61.65;100060.16;5042118;28;20056;-63
2023/06/21 07:06:52;;;;;;;8.57;3.07;;;;;;;22.36;62.01;100068.66;5031059;28;20067;-60
2023/06/21 07:09:22;;;;;;;7.67;2.80;;;;;;;22.23;62.11;100069.63;5041136;28;20054;-60
2023/06/21 07:11:56;;;;;;;11.60;2.60;;;;;;;22.11;62.22;100073.94;5031902;28;20903;-63
2023/06/21 07:14:27;;;;;;;10.90;3.07;;;;;;;21.96;62.63;100060.69;5034590;28;20053;-60
2023/06/21 07:16:57;;;;;;;8.63;2.83;;;;;;;21.98;63.72;100069.44;5012250;28;20446;-60
2023/06/21 07:19:29;;;;;;;14.83;3.40;;;;;;;22.01;63.57;100064.88;5021673;28;20064;-59
2023/06/21 07:22:00;;;;;;;11.40;2.73;;;;;;;21.95;63.88;100064.31;5015426;28;20057;-58
2023/06/21 07:24:30;;;;;;;11.93;2.90;;;;;;;21.72;64.52;100025.13;5033857;28;20053;-61
2023/06/21 07:27:01;;;;;;;5.57;2.80;;;;;;;21.95;63.84;100056.34;5014650;28;20053;-58
2023/06/21 07:29:32;;;;;;;11.40;2.90;;;;;;;21.83;63.69;100046.53;5036278;28;20839;-60
2023/06/21 07:32:03;;;;;;;11.70;2.43;;;;;;;21.61;64.53;100049.75;5030229;28;20133;-58
2023/06/21 07:34:35;;;;;;;7.03;2.50;;;;;;;21.60;64.93;100057.84;5037304;28;20166;-60
2023/06/21 07:37:06;;;;;;;9.27;2.60;;;;;;;21.53;65.04;100055.56;5040285;28;20084;-59
2023/06/21 07:39:36;;;;;;;5.33;2.53;;;;;;;21.53;65.28;100060.88;5029363;28;20133;-59
2023/06/21 07:42:23;;;;;;;5.63;2.93;;;;;;;21.48;65.47;100057.66;5039548;28;20599;-59
2023/06/21 07:44:57;;;;;;;10.10;2.97;;;;;;;21.50;66.15;100063.75;5030929;28;20520;-60
2023/06/21 07:47:29;;;;;;;8.37;2.93;;;;;;;21.63;66.35;100062.94;5036797;28;20322;-59
2023/06/21 07:50:01;;;;;;;12.70;3.27;;;;;;;21.61;65.92;100062.19;5030582;28;20511;-59
2023/06/21 07:52:49;;;;;;;7.67;3.30;;;;;;;21.73;66.00;100069.38;5028609;28;20491;-59
2023/06/21 07:55:19;;;;;;;10.90;3.70;;;;;;;21.67;65.52;100059.16;5040352;28;20399;-61
2023/06/21 07:57:50;;;;;;;14.53;3.30;;;;;;;21.76;65.96;100061.19;5029747;28;20068;-59
2023/06/21 08:00:21;;;;;;;7.63;2.93;;;;;;;21.74;65.38;100071.06;5040311;28;20052;-59
2023/06/21 08:02:53;;;;;;;21.63;3.63;;;;;;;21.67;65.66;100069.78;5030736;28;21876;-59
2023/06/21 08:05:26;;;;;;;11.20;4.00;;;;;;;21.62;66.13;100067.41;5040512;28;20057;-58
2023/06/21 08:08:01;;;;;;;9.13;2.90;;;;;;;21.63;66.32;100066.47;5030224;28;20155;-59
2023/06/21 08:10:33;;;;;;;18.93;3.53;;;;;;;21.66;66.54;100068.06;5040053;28;20146;-58
2023/06/21 08:13:04;;;;;;;11.77;3.23;;;;;;;21.63;66.36;100057.63;5030130;28;20088;-58
2023/06/21 08:15:34;;;;;;;12.97;3.73;;;;;;;21.71;66.17;100060.63;5030296;28;20146;-59
2023/06/21 08:18:07;;;;;;;8.60;3.17;;;;;;;21.65;66.53;100058.38;5040012;28;20053;-58
2023/06/21 08:20:40;;;;;;;7.23;2.93;;;;;;;21.60;66.48;100068.47;5030312;28;20298;-60
2023/06/21 08:23:11;;;;;;;13.23;2.77;;;;;;;21.48;66.56;100065.66;5039740;28;20596;-59
2023/06/21 08:25:41;;;;;;;12.70;3.00;;;;;;;21.27;66.73;100054.56;5029905;28;20047;-58
2023/06/21 08:28:12;;;;;;;13.80;3.80;;;;;;;21.21;66.98;100073.56;5040073;28;20297;-59
2023/06/21 08:30:42;;;;;;;20.33;3.60;;;;;;;21.07;67.52;100071.78;5029490;28;20367;-60
2023/06/21 08:33:13;;;;;;;15.27;3.63;;;;;;;20.97;68.05;100068.00;5039931;28;20072;-59
2023/06/21 08:35:45;;;;;;;7.73;3.20;;;;;;;20.99;68.20;100068.78;5030482;28;20774;-59
2023/06/21 08:38:16;;;;;;;16.27;3.67;;;;;;;21.13;68.43;100072.34;5040001;28;20378;-59
2023/06/21 08:41:03;;;;;;;11.87;3.53;;;;;;;21.08;68.65;100078.78;5029521;28;20283;-59
2023/06/21 08:43:34;;;;;;;12.60;3.13;;;;;;;21.13;68.49;100073.19;5034206;28;20340;-59
2023/06/21 08:46:07;;;;;;;12.80;3.23;;;;;;;21.05;68.62;100076.34;5037813;28;20741;-58
2023/06/21 08:48:38;;;;;;;10.23;3.40;;;;;;;21.05;68.76;100079.00;5028873;28;20283;-58
2023/06/21 08:51:10;;;;;;;14.10;3.90;;;;;;;21.03;68.91;100075.56;5039382;28;20063;-59
2023/06/21 08:53:47;;;;;;;18.43;4.27;;;;;;;20.99;68.68;100076.72;5029880;28;20342;-59
2023/06/21 08:56:22;;;;;;;15.27;3.13;;;;;;;20.69;68.85;100034.31;5039388;28;20757;-58
2023/06/21 08:59:01;;;;;;;9.93;3.40;;;;;;;20.85;69.30;100068.78;5028935;28;20731;-59
2023/06/21 09:01:41;;;;;;;13.97;3.33;;;;;;;20.82;69.28;100077.78;5039397;28;20283;-58
2023/06/21 09:04:29;;;;;;;13.57;3.33;;;;;;;20.72;69.79;100067.78;5028982;28;20293;-58
2023/06/21 09:07:03;;;;;;;17.15;3.08;;;;;;;20.82;69.61;100082.25;5027803;28;20299;-59
2023/06/21 09:09:34;;;;;;;10.80;3.30;;;;;;;20.85;69.87;100076.72;5035087;28;20044;-59
2023/06/21 09:12:27;;;;;;;9.63;2.97;;;;;;;20.78;69.35;100080.72;5038857;28;20291;-59
2023/06/21 09:14:58;;;;;;;9.47;3.43;;;;;;;20.68;69.67;100081.28;5027694;28;20279;-59
2023/06/21 09:17:31;;;;;;;17.87;4.30;;;;;;;20.64;69.70;100079.78;5035035;28;20294;-59
2023/06/21 09:20:16;;;;;;;13.30;3.13;;;;;;;20.60;69.68;100093.31;5028164;28;20303;-59
2023/06/21 09:22:53;;;;;;;10.53;3.17;;;;;;;20.42;69.94;100079.34;5028134;28;20295;-59
2023/06/21 09:25:28;;;;;;;10.87;3.13;;;;;;;20.32;70.37;100088.75;5038852;28;20283;-59
2023/06/21 09:27:58;;;;;;;11.60;2.80;;;;;;;20.25;71.00;100094.44;5028420;28;20389;-58
2023/06/21 09:30:30;;;;;;;14.00;3.07;;;;;;;20.16;71.04;100092.31;5038953;28;20313;-58
2023/06/21 09:33:07;;;;;;;9.47;3.17;;;;;;;20.07;71.69;100084.94;5028399;28;20286;-59
2023/06/21 09:35:39;;;;;;;8.83;3.40;;;;;;;20.01;71.87;100090.59;5028209;28;20321;-59
2023/06/21 09:38:28;;;;;;;15.37;4.47;;;;;;;19.78;72.07;100068.91;5038888;28;20287;-60
2023/06/21 09:40:58;;;;;;;10.23;3.23;;;;;;;19.84;72.39;100107.47;5027116;28;20318;-60
2023/06/21 09:43:30;;;;;;;10.30;3.93;;;;;;;19.28;72.71;100055.84;5038224;28;20287;-60
2023/06/21 09:46:03;;;;;;;6.63;3.17;;;;;;;19.45;73.05;100113.22;5028071;28;20757;-60
2023/06/21 09:48:36;;;;;;;13.73;3.80;;;;;;;19.39;73.39;100123.19;5034463;28;20283;-59
2023/06/21 09:51:12;;;;;;;14.00;4.10;;;;;;;19.32;73.98;100124.47;5038560;28;20299;-60
2023/06/21 09:53:48;;;;;;;8.85;3.70;;;;;;;19.18;74.66;100127.00;5028882;28;20294;-58
2023/06/21 09:56:33;;;;;;;7.17;3.40;;;;;;;19.01;75.31;100119.13;5038209;28;20144;-58
2023/06/21 09:59:24;;;;;;;14.40;3.73;;;;;;;18.84;76.03;100120.88;5037369;28;20295;-60
2023/06/21 10:01:57;;;;;;;15.00;3.67;;;;;;;18.61;77.03;100121.19;5026277;28;20302;-59
2023/06/21 10:04:29;;;;;;;19.00;4.60;;;;;;;18.47;77.75;100124.53;5037362;28;20366;-59
2023/06/21 10:07:05;;;;;;;13.17;4.80;;;;;;;18.22;78.46;100119.63;5027589;28;20370;-59
2023/06/21 10:09:40;;;;;;;12.80;5.03;;;;;;;18.07;79.13;100127.44;5028173;28;20958;-59
2023/06/21 10:12:13;;;;;;;20.53;5.20;;;;;;;17.92;79.83;100133.44;5038438;28;20381;-58
2023/06/21 10:14:45;;;;;;;17.63;6.20;;;;;;;17.69;80.79;100114.25;5028407;28;20682;-58
2023/06/21 10:17:17;;;;;;;15.50;6.77;;;;;;;17.61;81.48;100129.59;5038596;28;20428;-58
2023/06/21 10:19:49;;;;;;;11.40;5.70;;;;;;;17.41;82.39;100137.63;5027768;28;20319;-58
2023/06/21 10:22:22;;;;;;;17.37;10.80;;;;;;;17.31;83.12;100142.47;5038529;28;20291;-59
2023/06/21 10:24:57;;;;;;;19.10;12.47;;;;;;;17.16;84.07;100138.75;5028453;28;20397;-59
2023/06/21 10:27:30;;;;;;;11.33;6.67;;;;;;;17.06;84.22;100132.19;5038253;28;20294;-59
2023/06/21 10:30:04;;;;;;;17.50;5.70;;;;;;;17.01;84.71;100144.72;5027634;28;20318;-59
2023/06/21 10:32:38;;;;;;;12.97;5.03;;;;;;;16.93;85.03;100146.84;5029311;28;20321;-59
2023/06/21 10:35:15;;;;;;;7.60;4.63;;;;;;;16.83;85.44;100150.84;5041311;28;20309;-58
2023/06/21 10:37:52;;;;;;;18.53;4.90;;;;;;;16.65;86.14;100139.25;5031298;28;21370;-58
2023/06/21 10:40:26;;;;;;;14.07;3.50;;;;;;;16.52;86.48;100131.84;5041332;28;20294;-59
2023/06/21 10:42:59;;;;;;;12.17;3.83;;;;;;;16.53;86.98;100153.84;5031050;28;20753;-60
2023/06/21 10:45:32;;;;;;;13.80;3.90;;;;;;;16.43;87.69;100152.53;5041297;28;20682;-60
2023/06/21 10:48:05;;;;;;;17.83;4.30;;;;;;;16.41;87.83;100162.28;5030470;28;20430;-60
2023/06/21 10:50:36;;;;;;;17.97;4.43;;;;;;;16.23;88.29;100151.56;5031368;28;20286;-59
2023/06/21 10:53:10;;;;;;;11.77;3.40;;;;;;;16.28;88.66;100165.41;5041364;28;20279;-59
2023/06/21 10:55:43;;;;;;;20.47;5.50;;;;;;;16.21;89.00;100169.22;5030925;28;20374;-59
2023/06/21 10:58:15;;;;;;;14.13;4.23;;;;;;;16.15;89.36;100174.75;5040523;28;20318;-59
2023/06/21 11:00:47;;;;;;;17.23;4.60;;;;;;;16.08;89.67;100176.78;5030633;28;20725;-59
2023/06/21 11:03:25;;;;;;;13.50;3.60;;;;;;;16.08;90.40;100168.03;5041621;28;20350;-59
2023/06/21 11:05:57;;;;;;;16.07;3.90;;;;;;;16.07;90.10;100188.22;5031585;28;20718;-60
2023/06/21 11:08:33;;;;;;;15.87;4.10;;;;;;;15.95;90.42;100179.06;5028660;28;20811;-60
2023/06/21 11:11:06;;;;;;;12.00;4.00;;;;;;;15.92;90.75;100173.88;5030744;28;20286;-59
2023/06/21 11:13:39;;;;;;;16.63;3.60;;;;;;;15.92;91.11;100173.88;5030417;28;20287;-59
2023/06/21 11:16:14;;;;;;;22.13;4.50;;;;;;;15.85;90.31;100164.53;5040459;28;20590;-60
2023/06/21 11:18:50;;;;;;;12.07;4.23;;;;;;;15.89;90.72;100176.66;5030946;28;20295;-59
2023/06/21 11:21:40;;;;;;;15.97;4.07;;;;;;;15.77;91.08;100174.50;5040756;28;20286;-59
2023/06/21 11:24:17;;;;;;;8.80;3.67;;;;;;;15.75;91.65;100186.91;5030698;28;20291;-59
2023/06/21 11:27:01;;;;;;;19.57;4.70;;;;;;;15.59;91.59;100154.97;5031260;28;20287;-58
2023/06/21 11:29:43;;;;;;;31.10;4.30;;;;;;;15.70;91.91;100186.19;5029491;28;20301;-59
2023/06/21 11:32:15;;;;;;;16.03;3.87;;;;;;;15.64;92.34;100186.41;5031104;28;20317;-60
2023/06/21 11:34:56;;;;;;;10.20;4.10;;;;;;;15.56;92.15;100170.03;5029770;28;20301;-59
2023/06/21 11:37:40;;;;;;;10.90;4.80;;;;;;;15.58;92.21;100179.59;5040297;28;20360;-59
2023/06/21 11:40:14;;;;;;;11.53;3.90;;;;;;;15.51;92.48;100178.97;5030328;28;20318;-59
2023/06/21 11:42:52;;;;;;;14.37;4.10;;;;;;;15.54;92.59;100184.09;5030113;28;20301;-59
2023/06/21 11:45:27;;;;;;;12.70;3.80;;;;;;;15.46;92.95;100180.91;5039531;28;20286;-59
2023/06/21 11:48:05;;;;;;;8.97;3.77;;;;;;;15.32;93.28;100172.66;5030500;28;20282;-59